Cameron, NY (14819)

11:20 PM EDT on August 27, 2015 (GMT -0400)
Dickson Farms | | Change Station
CLOSE
Current Station
Personal Weather Station
Location: Bath, NY
Elevation: 1680 ft
Nearby Weather Stations

Elev 1680 ft 42.26 °N, 77.33 °W | Updated 8 seconds ago

Clear
Clear
53.8 °F
Feels Like 53.8 °F
N
1.0
Wind Variable Wind from WSW
Gusts 1.0 mph

Today
High -- | Low -- °F
--% Chance of Precip.
Yesterday
High -- | Low -- °F
Precip. -- in
6:29 AM 7:52 PM
Waxing Gibbous, 96% visible
Pressure 30.22 in
Visibility 10.0 miles
Clouds Clear
Dew Point 53 °F
Humidity 96%
Rainfall 0.00 in
Snow Depth Not available.
UV 0 out of 12
Pollen 9.50 out of 12
Air Quality Not available.
Flu Activity Not available.
METAR KELZ 280256Z AUTO 00000KT 10SM CLR 12/10 A3022 RMK AO2 SLP233 T01220100 50010
Pressure 30.22 in
Visibility 10.0 miles
Clouds Clear
Dew Point 53 °F
Humidity 96%
Rainfall 0.00 in
Snow Depth Not available.
UV 0 out of 12
Pollen 9.50 out of 12
Air Quality Not available.
Flu Activity Not available.
METAR KELZ 280256Z AUTO 00000KT 10SM CLR 12/10 A3022 RMK AO2 SLP233 T01220100 50010

10-Day Weather Forecast

×

Almanac

Astronomy

Aug. 27, 2015 Rise Set
Actual Time
Civil Twilight
Nautical Twilight
Astronomical Twilight
Moon
Length of Visible Light
Length of Day
Tomorrow will be .
, % of the Moon is Illuminated

Today's Extremes

State Highs State Lows

Community

WunderPhotos

Upload Photos

1,850,317 photos uploaded!

WunderBlogs® & News

Nearby

Air Quality

  Air Quality AQ Index Pollutant
Not available.

Snow Depth

Station Depth Elevation

Earthquake Activity

City Distance Mag. Time & Date
Minimum magnitude displayed is 2.5.

Coastal Water Temperatures

Place Temperature

Stations

Nearby Weather Stations

Station Location Temp. Windchill Dew Point Humidity Wind Precip. Elev Updated Type